sensor_id;sensor_type;location;lat;lon;timestamp;P1;durP1;ratioP1;P2;durP2;ratioP2
53939;SDS011;39850;43.324;21.916;2024-03-23T00:54:43;32.0;;;25.0;;
53939;SDS011;39850;43.324;21.916;2024-03-23T00:59:21;33.0;;;26.0;;
53939;SDS011;39850;43.324;21.916;2024-03-23T01:03:58;33.0;;;26.0;;
53939;SDS011;39850;43.324;21.916;2024-03-23T01:36:18;26.0;;;21.0;;
53939;SDS011;39850;43.324;21.916;2024-03-23T01:40:58;26.0;;;21.0;;
53939;SDS011;39850;43.324;21.916;2024-03-23T01:45:37;26.0;;;21.0;;
53939;SDS011;39850;43.324;21.916;2024-03-23T01:50:15;26.0;;;21.0;;
53939;SDS011;39850;43.324;21.916;2024-03-23T01:54:53;26.0;;;21.0;;
53939;SDS011;39850;43.324;21.916;2024-03-23T01:59:31;26.0;;;21.0;;
53939;SDS011;39850;43.324;21.916;2024-03-23T02:04:08;26.0;;;21.0;;
53939;SDS011;39850;43.324;21.916;2024-03-23T02:08:45;26.0;;;21.0;;
53939;SDS011;39850;43.324;21.916;2024-03-23T02:13:22;26.0;;;21.0;;
53939;SDS011;39850;43.324;21.916;2024-03-23T02:17:59;26.0;;;21.0;;
53939;SDS011;39850;43.324;21.916;2024-03-23T02:22:39;26.0;;;21.0;;
53939;SDS011;39850;43.324;21.916;2024-03-23T02:59:31;22.0;;;18.0;;
53939;SDS011;39850;43.324;21.916;2024-03-23T03:04:08;22.0;;;18.0;;
53939;SDS011;39850;43.324;21.916;2024-03-23T03:08:44;20.0;;;18.0;;
53939;SDS011;39850;43.324;21.916;2024-03-23T03:13:21;20.0;;;18.0;;
53939;SDS011;39850;43.324;21.916;2024-03-23T03:17:58;19.0;;;17.0;;
53939;SDS011;39850;43.324;21.916;2024-03-23T03:22:35;19.0;;;17.0;;
53939;SDS011;39850;43.324;21.916;2024-03-23T03:27:12;18.0;;;16.0;;
53939;SDS011;39850;43.324;21.916;2024-03-23T03:31:49;18.0;;;16.0;;
53939;SDS011;39850;43.324;21.916;2024-03-23T03:36:26;18.0;;;16.0;;
53939;SDS011;39850;43.324;21.916;2024-03-23T03:41:04;18.0;;;16.0;;
53939;SDS011;39850;43.324;21.916;2024-03-23T04:18:16;19.0;;;15.0;;
53939;SDS011;39850;43.324;21.916;2024-03-23T04:22:53;19.0;;;15.0;;
53939;SDS011;39850;43.324;21.916;2024-03-23T04:27:29;18.0;;;15.0;;
53939;SDS011;39850;43.324;21.916;2024-03-23T04:32:06;18.0;;;15.0;;
53939;SDS011;39850;43.324;21.916;2024-03-23T04:36:43;17.0;;;15.0;;
53939;SDS011;39850;43.324;21.916;2024-03-23T04:41:20;17.0;;;15.0;;
53939;SDS011;39850;43.324;21.916;2024-03-23T04:45:57;17.0;;;15.0;;
53939;SDS011;39850;43.324;21.916;2024-03-23T04:50:34;17.0;;;15.0;;
53939;SDS011;39850;43.324;21.916;2024-03-23T04:55:10;17.0;;;15.0;;
53939;SDS011;39850;43.324;21.916;2024-03-23T04:59:48;17.0;;;15.0;;
53939;SDS011;39850;43.324;21.916;2024-03-23T05:04:25;17.0;;;15.0;;
53939;SDS011;39850;43.324;21.916;2024-03-23T05:36:41;19.0;;;17.0;;
53939;SDS011;39850;43.324;21.916;2024-03-23T05:41:18;19.0;;;17.0;;
53939;SDS011;39850;43.324;21.916;2024-03-23T05:45:56;20.0;;;17.0;;
53939;SDS011;39850;43.324;21.916;2024-03-23T05:50:34;20.0;;;17.0;;
53939;SDS011;39850;43.324;21.916;2024-03-23T05:55:11;20.0;;;17.0;;
53939;SDS011;39850;43.324;21.916;2024-03-23T05:59:48;19.0;;;17.0;;
53939;SDS011;39850;43.324;21.916;2024-03-23T06:04:25;19.0;;;17.0;;
53939;SDS011;39850;43.324;21.916;2024-03-23T06:09:01;20.0;;;16.0;;
53939;SDS011;39850;43.324;21.916;2024-03-23T06:13:38;20.0;;;16.0;;
53939;SDS011;39850;43.324;21.916;2024-03-23T06:18:15;19.0;;;16.0;;
53939;SDS011;39850;43.324;21.916;2024-03-23T06:22:51;19.0;;;16.0;;
53939;SDS011;39850;43.324;21.916;2024-03-23T06:59:49;13.0;;;11.0;;
53939;SDS011;39850;43.324;21.916;2024-03-23T07:04:26;13.0;;;11.0;;
53939;SDS011;39850;43.324;21.916;2024-03-23T07:09:03;12.0;;;10.0;;
53939;SDS011;39850;43.324;21.916;2024-03-23T07:13:40;12.0;;;10.0;;
53939;SDS011;39850;43.324;21.916;2024-03-23T07:18:17;12.0;;;10.0;;
53939;SDS011;39850;43.324;21.916;2024-03-23T07:22:53;12.0;;;10.0;;
53939;SDS011;39850;43.324;21.916;2024-03-23T07:27:30;12.0;;;10.0;;
53939;SDS011;39850;43.324;21.916;2024-03-23T07:32:07;12.0;;;10.0;;
53939;SDS011;39850;43.324;21.916;2024-03-23T07:36:43;11.0;;;10.0;;
53939;SDS011;39850;43.324;21.916;2024-03-23T07:41:21;11.0;;;10.0;;
53939;SDS011;39850;43.324;21.916;2024-03-23T07:45:59;11.0;;;10.0;;
53939;SDS011;39850;43.324;21.916;2024-03-23T08:18:22;11.0;;;9.0;;
53939;SDS011;39850;43.324;21.916;2024-03-23T08:22:59;11.0;;;9.0;;
53939;SDS011;39850;43.324;21.916;2024-03-23T08:27:36;11.0;;;10.0;;
53939;SDS011;39850;43.324;21.916;2024-03-23T08:32:13;11.0;;;10.0;;
53939;SDS011;39850;43.324;21.916;2024-03-23T08:36:50;11.0;;;10.0;;
53939;SDS011;39850;43.324;21.916;2024-03-23T08:41:28;11.0;;;10.0;;
53939;SDS011;39850;43.324;21.916;2024-03-23T08:46:07;11.0;;;10.0;;
53939;SDS011;39850;43.324;21.916;2024-03-23T08:50:46;11.0;;;10.0;;
53939;SDS011;39850;43.324;21.916;2024-03-23T08:55:23;11.0;;;10.0;;
53939;SDS011;39850;43.324;21.916;2024-03-23T09:00:00;11.0;;;10.0;;
53939;SDS011;39850;43.324;21.916;2024-03-23T09:04:37;11.0;;;10.0;;
53939;SDS011;39850;43.324;21.916;2024-03-23T09:36:55;14.0;;;13.0;;
53939;SDS011;39850;43.324;21.916;2024-03-23T09:41:32;14.0;;;13.0;;
53939;SDS011;39850;43.324;21.916;2024-03-23T09:46:09;14.0;;;13.0;;
53939;SDS011;39850;43.324;21.916;2024-03-23T09:50:46;15.0;;;13.0;;
53939;SDS011;39850;43.324;21.916;2024-03-23T09:55:23;15.0;;;13.0;;
53939;SDS011;39850;43.324;21.916;2024-03-23T10:00:01;16.0;;;13.0;;
53939;SDS011;39850;43.324;21.916;2024-03-23T10:04:40;16.0;;;13.0;;
53939;SDS011;39850;43.324;21.916;2024-03-23T10:09:17;16.0;;;14.0;;
53939;SDS011;39850;43.324;21.916;2024-03-23T10:13:54;16.0;;;14.0;;
53939;SDS011;39850;43.324;21.916;2024-03-23T10:18:30;17.0;;;14.0;;
53939;SDS011;39850;43.324;21.916;2024-03-23T10:23:17;17.0;;;14.0;;
53939;SDS011;39850;43.324;21.916;2024-03-23T11:00:34;13.0;;;10.0;;
53939;SDS011;39850;43.324;21.916;2024-03-23T11:05:47;13.0;;;10.0;;
53939;SDS011;39850;43.324;21.916;2024-03-23T11:10:29;14.0;;;11.0;;
53939;SDS011;39850;43.324;21.916;2024-03-23T11:15:12;14.0;;;11.0;;
53939;SDS011;39850;43.324;21.916;2024-03-23T11:19:58;13.0;;;10.0;;
53939;SDS011;39850;43.324;21.916;2024-03-23T11:24:35;13.0;;;10.0;;
53939;SDS011;39850;43.324;21.916;2024-03-23T11:29:15;13.0;;;10.0;;
53939;SDS011;39850;43.324;21.916;2024-03-23T11:34:05;13.0;;;10.0;;
53939;SDS011;39850;43.324;21.916;2024-03-23T11:38:43;12.0;;;9.0;;
53939;SDS011;39850;43.324;21.916;2024-03-23T11:43:25;12.0;;;9.0;;
53939;SDS011;39850;43.324;21.916;2024-03-23T12:20:54;11.0;;;9.0;;
53939;SDS011;39850;43.324;21.916;2024-03-23T12:25:31;11.0;;;9.0;;
53939;SDS011;39850;43.324;21.916;2024-03-23T12:30:13;12.0;;;10.0;;
53939;SDS011;39850;43.324;21.916;2024-03-23T12:34:49;12.0;;;10.0;;
53939;SDS011;39850;43.324;21.916;2024-03-23T12:39:27;11.0;;;9.0;;
53939;SDS011;39850;43.324;21.916;2024-03-23T12:44:04;11.0;;;9.0;;
53939;SDS011;39850;43.324;21.916;2024-03-23T12:48:40;11.0;;;10.0;;
53939;SDS011;39850;43.324;21.916;2024-03-23T12:53:17;11.0;;;10.0;;
53939;SDS011;39850;43.324;21.916;2024-03-23T12:57:54;10.0;;;9.0;;
53939;SDS011;39850;43.324;21.916;2024-03-23T13:02:31;10.0;;;9.0;;
53939;SDS011;39850;43.324;21.916;2024-03-23T13:07:07;10.0;;;9.0;;
53939;SDS011;39850;43.324;21.916;2024-03-23T13:39:25;10.0;;;8.0;;
53939;SDS011;39850;43.324;21.916;2024-03-23T13:44:02;10.0;;;8.0;;
53939;SDS011;39850;43.324;21.916;2024-03-23T13:48:39;10.0;;;8.0;;
53939;SDS011;39850;43.324;21.916;2024-03-23T13:53:16;10.0;;;8.0;;
53939;SDS011;39850;43.324;21.916;2024-03-23T13:57:53;10.0;;;8.0;;
53939;SDS011;39850;43.324;21.916;2024-03-23T14:02:30;10.0;;;8.0;;
53939;SDS011;39850;43.324;21.916;2024-03-23T14:07:07;10.0;;;8.0;;
53939;SDS011;39850;43.324;21.916;2024-03-23T14:11:44;10.0;;;8.0;;
53939;SDS011;39850;43.324;21.916;2024-03-23T14:16:21;10.0;;;8.0;;
53939;SDS011;39850;43.324;21.916;2024-03-23T14:21:01;10.0;;;8.0;;
53939;SDS011;39850;43.324;21.916;2024-03-23T14:25:39;10.0;;;8.0;;
53939;SDS011;39850;43.324;21.916;2024-03-23T14:57:56;10.0;;;8.0;;
53939;SDS011;39850;43.324;21.916;2024-03-23T15:02:33;10.0;;;8.0;;
53939;SDS011;39850;43.324;21.916;2024-03-23T15:07:10;10.0;;;8.0;;
53939;SDS011;39850;43.324;21.916;2024-03-23T15:11:46;10.0;;;8.0;;
53939;SDS011;39850;43.324;21.916;2024-03-23T15:16:23;10.0;;;8.0;;
53939;SDS011;39850;43.324;21.916;2024-03-23T15:21:04;10.0;;;8.0;;
53939;SDS011;39850;43.324;21.916;2024-03-23T15:25:40;10.0;;;8.0;;
53939;SDS011;39850;43.324;21.916;2024-03-23T15:30:18;10.0;;;8.0;;
53939;SDS011;39850;43.324;21.916;2024-03-23T15:34:55;10.0;;;8.0;;
53939;SDS011;39850;43.324;21.916;2024-03-23T15:39:31;10.0;;;8.0;;
53939;SDS011;39850;43.324;21.916;2024-03-23T15:44:08;10.0;;;8.0;;
53939;SDS011;39850;43.324;21.916;2024-03-23T16:21:06;12.0;;;9.0;;
53939;SDS011;39850;43.324;21.916;2024-03-23T16:25:49;12.0;;;9.0;;
53939;SDS011;39850;43.324;21.916;2024-03-23T16:30:26;11.0;;;9.0;;
53939;SDS011;39850;43.324;21.916;2024-03-23T16:35:03;11.0;;;9.0;;
53939;SDS011;39850;43.324;21.916;2024-03-23T16:39:40;11.0;;;9.0;;
53939;SDS011;39850;43.324;21.916;2024-03-23T16:44:16;11.0;;;9.0;;
53939;SDS011;39850;43.324;21.916;2024-03-23T16:48:53;10.0;;;9.0;;
53939;SDS011;39850;43.324;21.916;2024-03-23T16:53:31;10.0;;;9.0;;
53939;SDS011;39850;43.324;21.916;2024-03-23T16:58:09;11.0;;;9.0;;
53939;SDS011;39850;43.324;21.916;2024-03-23T17:02:46;11.0;;;9.0;;
53939;SDS011;39850;43.324;21.916;2024-03-23T17:07:23;11.0;;;9.0;;
53939;SDS011;39850;43.324;21.916;2024-03-23T17:39:42;15.0;;;13.0;;
53939;SDS011;39850;43.324;21.916;2024-03-23T17:44:19;15.0;;;13.0;;
53939;SDS011;39850;43.324;21.916;2024-03-23T17:48:55;15.0;;;13.0;;
53939;SDS011;39850;43.324;21.916;2024-03-23T17:53:40;15.0;;;13.0;;
53939;SDS011;39850;43.324;21.916;2024-03-23T17:58:16;15.0;;;13.0;;
53939;SDS011;39850;43.324;21.916;2024-03-23T18:02:53;15.0;;;13.0;;
53939;SDS011;39850;43.324;21.916;2024-03-23T18:07:29;15.0;;;13.0;;
53939;SDS011;39850;43.324;21.916;2024-03-23T18:12:07;16.0;;;13.0;;
53939;SDS011;39850;43.324;21.916;2024-03-23T18:16:44;16.0;;;13.0;;
53939;SDS011;39850;43.324;21.916;2024-03-23T18:21:20;16.0;;;13.0;;
53939;SDS011;39850;43.324;21.916;2024-03-23T18:25:57;16.0;;;13.0;;
53939;SDS011;39850;43.324;21.916;2024-03-23T19:02:49;14.0;;;11.0;;
53939;SDS011;39850;43.324;21.916;2024-03-23T19:07:25;14.0;;;11.0;;
53939;SDS011;39850;43.324;21.916;2024-03-23T19:12:02;15.0;;;12.0;;
53939;SDS011;39850;43.324;21.916;2024-03-23T19:16:39;15.0;;;12.0;;
53939;SDS011;39850;43.324;21.916;2024-03-23T19:21:16;15.0;;;11.0;;
53939;SDS011;39850;43.324;21.916;2024-03-23T19:25:54;15.0;;;11.0;;
53939;SDS011;39850;43.324;21.916;2024-03-23T19:30:32;16.0;;;12.0;;
53939;SDS011;39850;43.324;21.916;2024-03-23T19:35:10;16.0;;;12.0;;
53939;SDS011;39850;43.324;21.916;2024-03-23T19:39:47;15.0;;;11.0;;
53939;SDS011;39850;43.324;21.916;2024-03-23T19:44:24;15.0;;;11.0;;
53939;SDS011;39850;43.324;21.916;2024-03-23T20:21:23;15.0;;;10.0;;
53939;SDS011;39850;43.324;21.916;2024-03-23T20:26:00;15.0;;;10.0;;
53939;SDS011;39850;43.324;21.916;2024-03-23T20:30:36;15.0;;;10.0;;
53939;SDS011;39850;43.324;21.916;2024-03-23T20:35:13;15.0;;;10.0;;
53939;SDS011;39850;43.324;21.916;2024-03-23T20:39:51;15.0;;;10.0;;
53939;SDS011;39850;43.324;21.916;2024-03-23T20:44:28;15.0;;;10.0;;
53939;SDS011;39850;43.324;21.916;2024-03-23T20:49:04;15.0;;;10.0;;
53939;SDS011;39850;43.324;21.916;2024-03-23T20:53:42;15.0;;;10.0;;
53939;SDS011;39850;43.324;21.916;2024-03-23T20:58:20;15.0;;;10.0;;
53939;SDS011;39850;43.324;21.916;2024-03-23T21:02:57;15.0;;;10.0;;
53939;SDS011;39850;43.324;21.916;2024-03-23T21:07:33;15.0;;;10.0;;
53939;SDS011;39850;43.324;21.916;2024-03-23T21:39:54;17.0;;;13.0;;
53939;SDS011;39850;43.324;21.916;2024-03-23T21:44:31;17.0;;;13.0;;
53939;SDS011;39850;43.324;21.916;2024-03-23T21:49:08;17.0;;;12.0;;
53939;SDS011;39850;43.324;21.916;2024-03-23T21:53:45;17.0;;;12.0;;
53939;SDS011;39850;43.324;21.916;2024-03-23T21:58:26;17.0;;;12.0;;
53939;SDS011;39850;43.324;21.916;2024-03-23T22:03:04;17.0;;;12.0;;
53939;SDS011;39850;43.324;21.916;2024-03-23T22:07:41;17.0;;;12.0;;
53939;SDS011;39850;43.324;21.916;2024-03-23T22:12:18;16.0;;;12.0;;
53939;SDS011;39850;43.324;21.916;2024-03-23T22:16:55;16.0;;;12.0;;
53939;SDS011;39850;43.324;21.916;2024-03-23T22:21:31;14.0;;;11.0;;
53939;SDS011;39850;43.324;21.916;2024-03-23T22:26:08;14.0;;;11.0;;
53939;SDS011;39850;43.324;21.916;2024-03-23T23:03:21;12.0;;;10.0;;
53939;SDS011;39850;43.324;21.916;2024-03-23T23:07:58;12.0;;;10.0;;
53939;SDS011;39850;43.324;21.916;2024-03-23T23:12:34;11.0;;;10.0;;
53939;SDS011;39850;43.324;21.916;2024-03-23T23:17:11;11.0;;;10.0;;
53939;SDS011;39850;43.324;21.916;2024-03-23T23:21:48;11.0;;;9.0;;
53939;SDS011;39850;43.324;21.916;2024-03-23T23:26:26;11.0;;;9.0;;
53939;SDS011;39850;43.324;21.916;2024-03-23T23:31:03;10.0;;;9.0;;
53939;SDS011;39850;43.324;21.916;2024-03-23T23:35:39;10.0;;;9.0;;
53939;SDS011;39850;43.324;21.916;2024-03-23T23:40:16;11.0;;;9.0;;
53939;SDS011;39850;43.324;21.916;2024-03-23T23:44:53;11.0;;;9.0;;
